createdAt,value
2023-02-13T00:00:59.869Z,42.1
2023-02-13T00:02:01.524Z,42
2023-02-13T00:03:02.959Z,42.1
2023-02-13T00:04:04.347Z,42.1
2023-02-13T00:05:05.743Z,42.1
2023-02-13T00:06:07.134Z,41.9
2023-02-13T00:07:08.531Z,41.9
2023-02-13T00:08:09.961Z,42.1
2023-02-13T00:09:11.478Z,41.9
2023-02-13T00:10:12.940Z,41.8
2023-02-13T00:11:14.346Z,42
2023-02-13T00:12:18.516Z,42
2023-02-13T00:13:19.935Z,42
2023-02-13T00:14:21.336Z,41.8
2023-02-13T00:15:22.949Z,41.8
2023-02-13T00:16:24.453Z,42
2023-02-13T00:17:25.850Z,41.8
2023-02-13T00:18:27.256Z,41.9
2023-02-13T00:19:28.690Z,41.9
2023-02-13T00:20:30.160Z,41.8
2023-02-13T00:21:31.545Z,41.9
2023-02-13T00:22:32.929Z,41.9
2023-02-13T00:23:34.321Z,41.8
2023-02-13T00:24:35.736Z,41.7
2023-02-13T00:25:37.180Z,41.6
2023-02-13T00:26:38.600Z,41.6
2023-02-13T00:27:40.000Z,41.7
2023-02-13T00:28:41.718Z,42
2023-02-13T00:29:43.214Z,41.9
2023-02-13T00:30:44.645Z,41.7
2023-02-13T00:31:46.333Z,41.7
2023-02-13T00:32:47.863Z,41.6
2023-02-13T00:33:49.263Z,41.6
2023-02-13T00:34:50.790Z,41.7
2023-02-13T00:35:52.230Z,41.9
2023-02-13T00:36:53.662Z,41.7
2023-02-13T00:37:55.073Z,41.6
2023-02-13T00:38:56.467Z,41.4
2023-02-13T00:39:57.875Z,41.5
2023-02-13T00:40:59.822Z,41.6
2023-02-13T00:42:01.347Z,41.4
2023-02-13T00:43:02.905Z,41.4
2023-02-13T00:44:04.295Z,41.5
2023-02-13T00:45:05.863Z,41.4
2023-02-13T00:46:07.409Z,41.4
2023-02-13T00:47:08.807Z,41.3
2023-02-13T00:48:10.260Z,41.3
2023-02-13T00:49:11.717Z,41.1
2023-02-13T00:50:13.129Z,41.1
2023-02-13T00:51:14.527Z,41.1
2023-02-13T00:52:15.930Z,41.3
2023-02-13T00:53:17.337Z,41.1
2023-02-13T00:54:18.748Z,41.2
2023-02-13T00:55:20.327Z,41.1
2023-02-13T00:56:21.801Z,41.1
2023-02-13T00:57:23.205Z,41.1
2023-02-13T00:58:24.833Z,41.1
2023-02-13T00:59:26.303Z,40.9
2023-02-13T01:00:27.710Z,41
2023-02-13T01:01:29.345Z,40.9
2023-02-13T01:02:30.788Z,41
2023-02-13T01:03:32.454Z,41
2023-02-13T01:04:34.150Z,40.9
2023-02-13T01:05:35.562Z,41
2023-02-13T01:06:36.956Z,40.8
2023-02-13T01:07:38.355Z,40.9
2023-02-13T01:08:39.770Z,40.9
2023-02-13T01:09:41.169Z,40.9
2023-02-13T01:10:42.575Z,40.7
2023-02-13T01:11:44.014Z,40.6
2023-02-13T01:12:45.428Z,40.5
2023-02-13T01:13:46.822Z,40.5
2023-02-13T01:14:48.238Z,40.6
2023-02-13T01:15:49.911Z,40.5
2023-02-13T01:16:51.295Z,40.7
2023-02-13T01:17:52.712Z,40.5
2023-02-13T01:18:54.136Z,40.5
2023-02-13T01:19:55.546Z,40.4
2023-02-13T01:20:57.589Z,40.3
2023-02-13T01:21:59.227Z,40.3
2023-02-13T01:23:00.610Z,40.4
2023-02-13T01:24:02.006Z,40.3
2023-02-13T01:25:03.387Z,40.2
2023-02-13T01:26:04.813Z,40.2
2023-02-13T01:27:06.376Z,40.1
2023-02-13T01:28:08.035Z,40.1
2023-02-13T01:29:09.504Z,40.1
2023-02-13T01:30:10.897Z,40.1
2023-02-13T01:31:12.623Z,40.1
2023-02-13T01:32:14.452Z,40
2023-02-13T01:33:15.905Z,40
2023-02-13T01:34:17.348Z,40
2023-02-13T01:35:18.758Z,40.1
2023-02-13T01:36:20.166Z,40
2023-02-13T01:37:21.585Z,39.9
2023-02-13T01:38:23.003Z,39.9
2023-02-13T01:39:24.411Z,40
2023-02-13T01:40:25.828Z,40
2023-02-13T01:41:27.275Z,40
2023-02-13T01:42:28.760Z,40
2023-02-13T01:43:30.155Z,39.8
2023-02-13T01:44:31.539Z,40
2023-02-13T01:45:32.932Z,39.9
2023-02-13T01:46:34.446Z,39.9
2023-02-13T01:47:35.975Z,39.7
2023-02-13T01:48:37.363Z,39.7
2023-02-13T01:49:38.775Z,39.6
2023-02-13T01:50:40.211Z,39.6
2023-02-13T01:51:41.605Z,39.7
2023-02-13T01:52:43.051Z,39.7
2023-02-13T01:53:44.427Z,39.7
2023-02-13T01:54:45.839Z,39.7
2023-02-13T01:55:47.262Z,39.7
2023-02-13T01:56:48.671Z,39.6
2023-02-13T01:57:50.131Z,39.5
2023-02-13T01:58:51.584Z,39.5
2023-02-13T01:59:52.969Z,39.5
2023-02-13T02:00:54.591Z,39.6
2023-02-13T02:01:56.389Z,39.5
2023-02-13T02:02:57.871Z,39.4
2023-02-13T02:03:59.293Z,39.4
2023-02-13T02:05:00.701Z,39.3
2023-02-13T02:06:02.119Z,39.4
2023-02-13T02:07:03.543Z,39.4
2023-02-13T02:08:04.949Z,39.3
2023-02-13T02:09:06.375Z,39.2
2023-02-13T02:10:07.812Z,39.1
2023-02-13T02:11:09.205Z,39.2
2023-02-13T02:12:10.604Z,39.3
2023-02-13T02:13:12.058Z,39.3
2023-02-13T02:14:13.454Z,39.4
2023-02-13T02:15:14.910Z,39.3
2023-02-13T02:16:16.531Z,39.1
2023-02-13T02:17:17.940Z,39.2
2023-02-13T02:18:19.354Z,39.1
2023-02-13T02:19:20.749Z,39.2
2023-02-13T02:20:22.150Z,39.2
2023-02-13T02:21:23.551Z,39.2
2023-02-13T02:22:24.979Z,39.1
2023-02-13T02:23:26.405Z,39.1
2023-02-13T02:24:27.807Z,39
2023-02-13T02:25:29.182Z,39
2023-02-13T02:26:30.579Z,38.9
2023-02-13T02:27:32.041Z,39.1
2023-02-13T02:28:33.674Z,38.9
2023-02-13T02:29:35.090Z,38.9
2023-02-13T02:30:36.612Z,39
2023-02-13T02:31:38.285Z,38.8
2023-02-13T02:32:39.680Z,38.9
2023-02-13T02:33:41.084Z,38.8
2023-02-13T02:34:42.471Z,38.8
2023-02-13T02:35:43.862Z,38.8
2023-02-13T02:36:45.277Z,38.8
2023-02-13T02:37:46.674Z,38.8
2023-02-13T02:38:48.066Z,38.8
2023-02-13T02:39:49.479Z,38.8
2023-02-13T02:40:50.907Z,38.8
2023-02-13T02:41:52.320Z,38.7
2023-02-13T02:42:53.733Z,38.7
2023-02-13T02:43:55.181Z,38.7
2023-02-13T02:44:56.581Z,38.7
2023-02-13T02:45:57.979Z,38.6
2023-02-13T02:46:59.595Z,38.5
2023-02-13T02:48:01.073Z,38.5
2023-02-13T02:49:02.480Z,38.6
2023-02-13T02:50:03.875Z,38.5
2023-02-13T02:51:05.288Z,38.5
2023-02-13T02:52:06.692Z,38.6
2023-02-13T02:53:08.160Z,38.6
2023-02-13T02:54:09.560Z,38.5
2023-02-13T02:55:10.952Z,38.4
2023-02-13T02:56:12.687Z,38.5
2023-02-13T02:57:14.368Z,38.4
2023-02-13T02:58:15.754Z,38.4
2023-02-13T02:59:17.198Z,38.4
2023-02-13T03:00:18.643Z,38.3
2023-02-13T03:01:20.332Z,38.4
2023-02-13T03:02:21.840Z,38.4
2023-02-13T03:03:23.224Z,38.3
2023-02-13T03:04:24.884Z,38.4
2023-02-13T03:05:26.371Z,38.3
2023-02-13T03:06:27.816Z,38.3
2023-02-13T03:07:29.236Z,38.3
2023-02-13T03:08:30.684Z,38.3
2023-02-13T03:09:32.110Z,38.3
2023-02-13T03:10:33.501Z,38.2
2023-02-13T03:11:34.884Z,38.3
2023-02-13T03:12:36.271Z,38.4
2023-02-13T03:13:37.676Z,38.2
2023-02-13T03:14:39.148Z,38.3
2023-02-13T03:15:40.544Z,38.3
2023-02-13T03:16:42.157Z,38.3
2023-02-13T03:17:43.692Z,38.1
2023-02-13T03:18:45.084Z,38.2
2023-02-13T03:19:46.468Z,38.3
2023-02-13T03:20:47.881Z,38.4
2023-02-13T03:21:49.294Z,38.3
2023-02-13T03:22:50.688Z,38.2
2023-02-13T03:23:52.102Z,38.3
2023-02-13T03:24:53.526Z,38.4
2023-02-13T03:25:54.931Z,38.3
2023-02-13T03:26:56.340Z,38.4
2023-02-13T03:27:57.760Z,38.3
2023-02-13T03:28:59.186Z,38.2
2023-02-13T03:30:00.636Z,38.3
2023-02-13T03:31:02.123Z,38.3
2023-02-13T03:32:03.529Z,38.2
2023-02-13T03:33:04.918Z,38.1
2023-02-13T03:34:06.297Z,38.1
2023-02-13T03:35:07.696Z,38.2
2023-02-13T03:36:09.091Z,38.1
2023-02-13T03:37:10.500Z,38
2023-02-13T03:38:12.058Z,38.2
2023-02-13T03:39:13.433Z,38.1
2023-02-13T03:40:14.849Z,38.1
2023-02-13T03:41:16.251Z,38.1
2023-02-13T03:42:17.644Z,38
2023-02-13T03:43:19.039Z,38
2023-02-13T03:44:20.445Z,38
2023-02-13T03:45:21.896Z,38
2023-02-13T03:46:23.283Z,37.9
2023-02-13T03:47:24.677Z,38
2023-02-13T03:48:26.070Z,38
2023-02-13T03:49:27.463Z,37.9
2023-02-13T03:50:28.872Z,37.9
2023-02-13T03:51:30.324Z,37.9
2023-02-13T03:52:31.744Z,37.9
2023-02-13T03:53:33.154Z,37.8
2023-02-13T03:54:34.533Z,37.8
2023-02-13T03:55:35.943Z,37.9
2023-02-13T03:56:37.457Z,37.8
2023-02-13T03:57:38.864Z,37.9
2023-02-13T03:58:40.299Z,37.8
2023-02-13T03:59:41.701Z,37.7
2023-02-13T04:00:43.159Z,37.7
2023-02-13T04:01:44.696Z,37.8
2023-02-13T04:02:46.305Z,37.7
2023-02-13T04:03:47.871Z,37.7
2023-02-13T04:04:49.272Z,37.8
2023-02-13T04:05:50.664Z,37.8
2023-02-13T04:06:52.092Z,37.7
2023-02-13T04:07:53.484Z,37.8
2023-02-13T04:08:54.897Z,37.7
2023-02-13T04:09:56.306Z,37.7
2023-02-13T04:10:58.556Z,37.7
2023-02-13T04:12:00.226Z,37.7
2023-02-13T04:13:01.663Z,37.6
2023-02-13T04:14:03.057Z,37.7
2023-02-13T04:15:04.463Z,37.9
2023-02-13T04:16:05.902Z,37.8
2023-02-13T04:17:07.307Z,37.9
2023-02-13T04:18:11.050Z,37.7
2023-02-13T04:19:12.447Z,37.7
2023-02-13T04:20:13.932Z,37.7
2023-02-13T04:21:15.327Z,37.8
2023-02-13T04:22:16.727Z,37.8
2023-02-13T04:23:18.131Z,37.8
2023-02-13T04:24:19.553Z,37.8
2023-02-13T04:25:20.986Z,37.8
2023-02-13T04:26:22.437Z,37.9
2023-02-13T04:27:23.817Z,37.8
2023-02-13T04:28:25.304Z,37.9
2023-02-13T04:29:26.763Z,37.8
2023-02-13T04:30:28.253Z,37.8
2023-02-13T04:31:30.045Z,37.8
2023-02-13T04:32:31.578Z,37.8
2023-02-13T04:33:32.985Z,37.7
2023-02-13T04:34:34.457Z,37.7
2023-02-13T04:35:35.864Z,37.7
2023-02-13T04:36:37.260Z,37.6
2023-02-13T04:37:38.664Z,37.6
2023-02-13T04:38:40.100Z,37.7
2023-02-13T04:39:41.498Z,37.6
2023-02-13T04:40:42.931Z,37.6
2023-02-13T04:41:44.315Z,37.6
2023-02-13T04:42:45.709Z,38
2023-02-13T04:43:47.131Z,39.5
2023-02-13T04:44:48.569Z,38.3
2023-02-13T04:45:50.196Z,39.3
2023-02-13T04:46:51.720Z,38.8
2023-02-13T04:47:53.120Z,39.6
2023-02-13T04:48:54.546Z,39.5
2023-02-13T04:49:55.929Z,40.1
2023-02-13T04:50:57.982Z,40.3
2023-02-13T04:51:59.606Z,40.6
2023-02-13T04:53:01.040Z,40.4
2023-02-13T04:54:02.501Z,41.7
2023-02-13T04:55:03.910Z,42.1
2023-02-13T04:56:05.312Z,41.1
2023-02-13T04:57:06.706Z,39
2023-02-13T04:58:08.094Z,39.2
2023-02-13T04:59:09.549Z,38.8
2023-02-13T05:00:10.955Z,38.8
2023-02-13T05:01:12.667Z,38.8
2023-02-13T05:02:14.119Z,38.5
2023-02-13T05:03:15.490Z,38.4
2023-02-13T05:04:17.098Z,38
2023-02-13T05:05:18.508Z,37.6
2023-02-13T05:06:19.890Z,37.5
2023-02-13T05:07:21.286Z,37.5
2023-02-13T05:08:22.749Z,37
2023-02-13T05:09:24.163Z,37
2023-02-13T05:10:25.584Z,37
2023-02-13T05:11:26.981Z,36.9
2023-02-13T05:12:28.404Z,36.8
2023-02-13T05:13:29.841Z,36.5
2023-02-13T05:14:31.255Z,36.2
2023-02-13T05:15:32.767Z,36.1
2023-02-13T05:16:34.299Z,36.2
2023-02-13T05:17:35.743Z,36
2023-02-13T05:18:37.149Z,35.9
2023-02-13T05:19:38.532Z,35.9
2023-02-13T05:20:39.946Z,35.9
2023-02-13T05:21:41.339Z,35.7
2023-02-13T05:22:42.746Z,35.7
2023-02-13T05:23:44.170Z,35.4
2023-02-13T05:24:45.572Z,35.6
2023-02-13T05:25:46.962Z,35.4
2023-02-13T05:26:48.382Z,35.3
2023-02-13T05:27:49.794Z,35.3
2023-02-13T05:28:51.340Z,35
2023-02-13T05:29:52.732Z,35.1
2023-02-13T05:30:54.462Z,34.9
2023-02-13T05:31:56.440Z,34.8
2023-02-13T05:32:58.072Z,34.8
2023-02-13T05:33:59.487Z,34.7
2023-02-13T05:35:04.610Z,34.7
2023-02-13T05:36:06.147Z,34.5
2023-02-13T05:37:07.586Z,34.5
2023-02-13T05:38:08.974Z,34.6
2023-02-13T05:39:10.428Z,34.5
2023-02-13T05:40:11.831Z,34.4
2023-02-13T05:41:13.240Z,34.3
2023-02-13T05:42:14.650Z,34.4
2023-02-13T05:43:16.064Z,34.1
2023-02-13T05:44:17.531Z,34.1
2023-02-13T05:45:18.950Z,34.2
2023-02-13T05:46:20.463Z,34
2023-02-13T05:47:21.983Z,33.9
2023-02-13T05:48:23.428Z,33.9
2023-02-13T05:49:24.829Z,33.9
2023-02-13T05:50:26.252Z,33.8
2023-02-13T05:51:27.668Z,33.8
2023-02-13T05:52:29.062Z,33.6
2023-02-13T05:53:30.459Z,33.6
2023-02-13T05:54:31.871Z,33.6
2023-02-13T05:55:33.303Z,33.5
2023-02-13T05:56:34.745Z,33.4
2023-02-13T05:57:36.129Z,33.4
2023-02-13T05:58:37.524Z,33.4
2023-02-13T05:59:38.947Z,33.3
2023-02-13T06:00:40.352Z,33.4
2023-02-13T06:01:41.744Z,33.3
2023-02-13T06:02:43.389Z,33.2
2023-02-13T06:03:45.182Z,33.3
2023-02-13T06:04:46.585Z,33
2023-02-13T06:05:47.987Z,33.1
2023-02-13T06:06:49.371Z,32.9
2023-02-13T06:07:50.786Z,32.9
2023-02-13T06:08:52.235Z,32.9
2023-02-13T06:09:53.636Z,32.9
2023-02-13T06:10:55.038Z,33
2023-02-13T06:11:56.471Z,33
2023-02-13T06:12:57.874Z,32.8
2023-02-13T06:13:59.309Z,32.9
2023-02-13T06:15:00.709Z,32.8
2023-02-13T06:16:02.258Z,32.7
2023-02-13T06:17:03.776Z,32.7
2023-02-13T06:18:05.193Z,32.6
2023-02-13T06:19:06.677Z,32.6
2023-02-13T06:20:08.091Z,32.6
2023-02-13T06:21:09.506Z,32.8
2023-02-13T06:22:10.903Z,32.7
2023-02-13T06:23:12.328Z,32.7
2023-02-13T06:24:13.740Z,32.7
2023-02-13T06:25:15.139Z,32.6
2023-02-13T06:26:16.564Z,32.6
2023-02-13T06:27:17.939Z,32.4
2023-02-13T06:28:19.541Z,32.5
2023-02-13T06:29:21.064Z,32.4
2023-02-13T06:30:22.461Z,32.4
2023-02-13T06:31:24.279Z,32.6
2023-02-13T06:32:25.849Z,32.2
2023-02-13T06:33:27.236Z,32.4
2023-02-13T06:34:28.763Z,32.4
2023-02-13T06:35:30.152Z,32.3
2023-02-13T06:36:31.556Z,32.3
2023-02-13T06:37:32.970Z,32.3
2023-02-13T06:38:34.381Z,32.2
2023-02-13T06:39:35.795Z,32.2
2023-02-13T06:40:37.251Z,32.1
2023-02-13T06:41:38.696Z,32.2
2023-02-13T06:42:40.089Z,31.9
2023-02-13T06:43:41.494Z,32.1
2023-02-13T06:44:42.921Z,32.3
2023-02-13T06:45:44.337Z,32
2023-02-13T06:46:45.881Z,32
2023-02-13T06:47:47.393Z,32
2023-02-13T06:48:48.805Z,32.1
2023-02-13T06:49:50.277Z,32
2023-02-13T06:50:51.672Z,32.1
2023-02-13T06:51:53.087Z,32.1
2023-02-13T06:52:54.470Z,32
2023-02-13T06:53:55.865Z,32
2023-02-13T06:54:57.282Z,32.1
2023-02-13T06:55:58.704Z,31.9
2023-02-13T06:57:00.106Z,32
2023-02-13T06:58:01.501Z,31.8
2023-02-13T06:59:02.977Z,31.8
2023-02-13T07:00:04.369Z,31.9
2023-02-13T07:01:05.965Z,31.8
2023-02-13T07:02:07.387Z,31.7
2023-02-13T07:03:09.025Z,32
2023-02-13T07:04:10.403Z,31.7
2023-02-13T07:05:11.856Z,31.8
2023-02-13T07:06:13.241Z,31.9
2023-02-13T07:07:14.640Z,31.9
2023-02-13T07:08:16.042Z,31.7
2023-02-13T07:09:17.427Z,31.9
2023-02-13T07:10:18.859Z,31.7
2023-02-13T07:11:20.318Z,31.9
2023-02-13T07:12:21.749Z,31.9
2023-02-13T07:13:23.170Z,31.8
2023-02-13T07:14:24.627Z,31.9
2023-02-13T07:15:26.040Z,31.8
2023-02-13T07:16:27.658Z,31.8
2023-02-13T07:17:29.249Z,31.8
2023-02-13T07:18:30.637Z,31.7
2023-02-13T07:19:32.045Z,31.7
2023-02-13T07:20:33.532Z,31.8
2023-02-13T07:21:34.931Z,31.8
2023-02-13T07:22:36.346Z,31.6
2023-02-13T07:23:37.733Z,31.7
2023-02-13T07:24:39.103Z,31.7
2023-02-13T07:25:40.497Z,31.8
2023-02-13T07:26:41.901Z,31.6
2023-02-13T07:27:43.295Z,31.5
2023-02-13T07:28:44.790Z,31.6
2023-02-13T07:29:46.196Z,31.5
2023-02-13T07:30:47.817Z,31.7
2023-02-13T07:31:49.313Z,31.7
2023-02-13T07:32:50.815Z,31.5
2023-02-13T07:33:52.190Z,31.6
2023-02-13T07:35:02.758Z,31.7
2023-02-13T07:36:04.413Z,31.6
2023-02-13T07:37:05.937Z,31.6
2023-02-13T07:38:07.339Z,31.7
2023-02-13T07:39:08.828Z,31.6
2023-02-13T07:40:10.236Z,31.6
2023-02-13T07:41:11.639Z,31.6
2023-02-13T07:42:13.052Z,31.6
2023-02-13T07:43:14.487Z,31.6
2023-02-13T07:44:15.920Z,31.5
2023-02-13T07:45:17.332Z,31.4
2023-02-13T07:46:18.799Z,31.6
2023-02-13T07:47:20.684Z,31.5
2023-02-13T07:48:22.095Z,31.4
2023-02-13T07:49:23.501Z,31.5
2023-02-13T07:50:24.938Z,31.5
2023-02-13T07:51:26.413Z,31.6
2023-02-13T07:52:27.824Z,31.3
2023-02-13T07:53:29.245Z,31.5
2023-02-13T07:54:30.674Z,31.5
2023-02-13T07:55:32.084Z,31.5
2023-02-13T07:56:33.521Z,31.7
2023-02-13T07:57:34.937Z,31.6
2023-02-13T07:58:36.329Z,31.6
2023-02-13T07:59:37.735Z,31.5
2023-02-13T08:00:39.124Z,31.5
2023-02-13T08:01:40.682Z,31.5
2023-02-13T08:02:42.201Z,31.5
2023-02-13T08:03:43.777Z,31.4
2023-02-13T08:04:45.191Z,31.4
2023-02-13T08:05:46.595Z,31.5
2023-02-13T08:06:48.072Z,31.5
2023-02-13T08:07:49.444Z,31.6
2023-02-13T08:08:50.846Z,31.5
2023-02-13T08:09:52.263Z,31.5
2023-02-13T08:10:53.635Z,31.7
2023-02-13T08:11:55.036Z,31.4
2023-02-13T08:12:56.453Z,31.5
2023-02-13T08:13:57.880Z,31.3
2023-02-13T08:14:59.368Z,31.5
2023-02-13T08:16:00.964Z,31.6
2023-02-13T08:17:02.465Z,31.6
2023-02-13T08:18:03.898Z,31.5
2023-02-13T08:19:05.311Z,31.5
2023-02-13T08:20:06.743Z,31.3
2023-02-13T08:21:08.221Z,31.5
2023-02-13T08:22:09.680Z,31.4
2023-02-13T08:23:11.341Z,31.5
2023-02-13T08:24:12.758Z,31.5
2023-02-13T08:25:14.153Z,31.4
2023-02-13T08:26:15.553Z,31.4
2023-02-13T08:27:16.973Z,31.5
2023-02-13T08:28:18.607Z,31.4
2023-02-13T08:29:20.051Z,31.4
2023-02-13T08:30:21.478Z,31.3
2023-02-13T08:31:23.226Z,31.4
2023-02-13T08:32:24.983Z,31.3
2023-02-13T08:33:26.403Z,31.5
2023-02-13T08:34:27.776Z,31.4
2023-02-13T08:35:29.171Z,31.2
2023-02-13T08:36:30.566Z,31.4
2023-02-13T08:37:32.066Z,31.5
2023-02-13T08:38:33.501Z,31.5
2023-02-13T08:39:34.922Z,31.3
2023-02-13T08:40:36.329Z,31.3
2023-02-13T08:41:37.746Z,31.3
2023-02-13T08:42:39.158Z,31.3
2023-02-13T08:43:40.592Z,31.4
2023-02-13T08:44:41.979Z,31.3
2023-02-13T08:45:43.575Z,31.6
2023-02-13T08:46:45.038Z,31.3
2023-02-13T08:47:46.438Z,31.4
2023-02-13T08:48:47.843Z,31.2
2023-02-13T08:49:49.265Z,31.4
2023-02-13T08:50:50.679Z,31.4
2023-02-13T08:51:52.074Z,31.2
2023-02-13T08:52:53.525Z,31.5
2023-02-13T08:53:54.950Z,31.3
2023-02-13T08:54:56.406Z,31.3
2023-02-13T08:55:58.853Z,31.3
2023-02-13T08:57:00.467Z,31.2
2023-02-13T08:58:01.870Z,31.2
2023-02-13T08:59:03.293Z,31.2
2023-02-13T09:00:04.752Z,31.3
2023-02-13T09:01:06.287Z,31.3
2023-02-13T09:02:07.830Z,31.1
2023-02-13T09:03:10.667Z,31.4
2023-02-13T09:04:12.103Z,31.4
2023-02-13T09:05:13.584Z,31.3
2023-02-13T09:06:15.001Z,31.1
2023-02-13T09:07:16.439Z,31.1
2023-02-13T09:08:19.180Z,31.1
2023-02-13T09:09:20.629Z,31.3
2023-02-13T09:10:22.051Z,31.2
2023-02-13T09:11:23.726Z,31.2
2023-02-13T09:12:25.172Z,31.3
2023-02-13T09:13:26.583Z,31.1
2023-02-13T09:14:28.009Z,31.2
2023-02-13T09:15:29.439Z,31
2023-02-13T09:16:31.058Z,31.1
2023-02-13T09:17:32.474Z,31.2
2023-02-13T09:18:33.919Z,31.2
2023-02-13T09:19:35.352Z,31.2
2023-02-13T09:20:36.756Z,31.2
2023-02-13T09:21:38.164Z,31.2
2023-02-13T09:22:39.615Z,31.2
2023-02-13T09:23:41.066Z,31.3
2023-02-13T09:24:42.489Z,31.2
2023-02-13T09:25:43.908Z,31
2023-02-13T09:26:45.394Z,31.1
2023-02-13T09:27:46.812Z,31.1
2023-02-13T09:28:48.527Z,31.2
2023-02-13T09:29:50.113Z,31.3
2023-02-13T09:30:51.819Z,31.2
2023-02-13T09:31:53.712Z,31
2023-02-13T09:32:55.237Z,31.1
2023-02-13T09:33:56.641Z,30.9
2023-02-13T09:34:58.045Z,31
2023-02-13T09:35:59.933Z,31
2023-02-13T09:37:01.531Z,30.9
2023-02-13T09:38:02.937Z,31
2023-02-13T09:39:04.413Z,31.2
2023-02-13T09:40:05.815Z,31.3
2023-02-13T09:41:07.240Z,31.3
2023-02-13T09:42:08.662Z,31.3
2023-02-13T09:43:10.074Z,31.4
2023-02-13T09:44:11.466Z,31.4
2023-02-13T09:45:12.890Z,31.3
2023-02-13T09:46:14.439Z,31.3
2023-02-13T09:47:15.901Z,31.3
2023-02-13T09:48:17.320Z,31.3
2023-02-13T09:49:18.702Z,31.2
2023-02-13T09:50:20.125Z,31.1
2023-02-13T09:51:21.553Z,31.1
2023-02-13T09:52:22.943Z,31.1
2023-02-13T09:53:24.336Z,31.1
2023-02-13T09:54:25.790Z,31.2
2023-02-13T09:55:27.202Z,31.1
2023-02-13T09:56:28.607Z,31.2
2023-02-13T09:57:30.002Z,31.2
2023-02-13T09:58:31.430Z,31.1
2023-02-13T09:59:32.821Z,30.9
2023-02-13T10:00:34.223Z,31.1
2023-02-13T10:01:35.901Z,31.1
2023-02-13T10:02:37.380Z,31
2023-02-13T10:03:38.817Z,31.1
2023-02-13T10:04:40.621Z,31
2023-02-13T10:05:42.117Z,31
2023-02-13T10:06:43.526Z,30.8
2023-02-13T10:07:44.921Z,30.8
2023-02-13T10:08:46.343Z,31
2023-02-13T10:09:47.829Z,31.2
2023-02-13T10:10:49.265Z,31.1
2023-02-13T10:11:50.686Z,30.8
2023-02-13T10:12:52.131Z,30.8
2023-02-13T10:13:53.537Z,30.8
2023-02-13T10:14:54.936Z,30.9
2023-02-13T10:15:57.261Z,30.9
2023-02-13T10:16:58.895Z,31
2023-02-13T10:18:00.321Z,31.1
2023-02-13T10:19:01.875Z,30.8
2023-02-13T10:20:03.284Z,31.1
2023-02-13T10:21:04.694Z,30.9
2023-02-13T10:22:06.144Z,30.8
2023-02-13T10:23:07.569Z,30.9
2023-02-13T10:24:08.975Z,30.7
2023-02-13T10:25:10.444Z,30.9
2023-02-13T10:26:11.850Z,30.8
2023-02-13T10:27:13.235Z,30.8
2023-02-13T10:28:14.760Z,30.9
2023-02-13T10:29:16.184Z,30.8
2023-02-13T10:30:17.608Z,30.7
2023-02-13T10:31:19.404Z,30.7
2023-02-13T10:32:21.459Z,30.9
2023-02-13T10:33:23.012Z,30.6
2023-02-13T10:34:24.433Z,30.6
2023-02-13T10:35:25.847Z,30.7
2023-02-13T10:36:27.252Z,30.6
2023-02-13T10:37:28.659Z,30.7
2023-02-13T10:38:30.059Z,30.5
2023-02-13T10:39:31.455Z,30.8
2023-02-13T10:40:33.133Z,30.6
2023-02-13T10:41:34.530Z,30.6
2023-02-13T10:42:36.889Z,30.6
2023-02-13T10:43:38.308Z,30.7
2023-02-13T10:44:39.733Z,30.6
2023-02-13T10:45:41.168Z,30.4
2023-02-13T10:46:42.696Z,30.4
2023-02-13T10:47:44.197Z,30.7
2023-02-13T10:48:45.597Z,30.5
2023-02-13T10:49:47.010Z,30.4
2023-02-13T10:50:48.427Z,30.5
2023-02-13T10:51:49.839Z,30.6
2023-02-13T10:52:51.248Z,30.6
2023-02-13T10:53:52.650Z,30.7
2023-02-13T10:54:54.073Z,30.6
2023-02-13T10:55:55.708Z,30.7
2023-02-13T10:56:57.297Z,30.7
2023-02-13T10:57:58.725Z,30.5
2023-02-13T10:59:00.160Z,30.8
2023-02-13T11:00:01.603Z,30.6
2023-02-13T11:01:03.004Z,30.8
2023-02-13T11:02:04.453Z,30.5
2023-02-13T11:03:05.862Z,30.9
2023-02-13T11:04:07.577Z,30.6
2023-02-13T11:05:09.049Z,30.8
2023-02-13T11:06:10.443Z,30.4
2023-02-13T11:07:11.867Z,30.7
2023-02-13T11:08:13.315Z,30.6
2023-02-13T11:09:14.731Z,30.7
2023-02-13T11:10:16.140Z,30.7
2023-02-13T11:11:17.601Z,30.7
2023-02-13T11:12:19.003Z,30.7
2023-02-13T11:13:20.586Z,30.5
2023-02-13T11:14:22.124Z,30.6
2023-02-13T11:15:23.968Z,30.4
2023-02-13T11:16:25.556Z,30.6
2023-02-13T11:17:27.050Z,30.6
2023-02-13T11:18:28.475Z,30.7
2023-02-13T11:19:29.890Z,30.8
2023-02-13T11:20:31.288Z,30.9
2023-02-13T11:21:33.011Z,30.9
2023-02-13T11:22:34.451Z,30.7
2023-02-13T11:23:35.875Z,30.8
2023-02-13T11:24:37.318Z,30.8
2023-02-13T11:25:38.852Z,30.8
2023-02-13T11:26:40.298Z,30.8
2023-02-13T11:27:41.716Z,30.6
2023-02-13T11:28:43.238Z,30.7
2023-02-13T11:29:44.735Z,30.9
2023-02-13T11:30:46.124Z,31.1
2023-02-13T11:31:47.871Z,30.7
2023-02-13T11:32:49.409Z,30.8
2023-02-13T11:33:50.834Z,30.8
2023-02-13T11:34:52.274Z,30.8
2023-02-13T11:35:53.689Z,30.8
2023-02-13T11:36:55.078Z,30.8
2023-02-13T11:37:56.470Z,30.5
2023-02-13T11:38:57.879Z,30.7
2023-02-13T11:39:59.303Z,30.9
2023-02-13T11:41:00.704Z,30.8
2023-02-13T11:42:02.192Z,30.8
2023-02-13T11:43:03.590Z,30.6
2023-02-13T11:44:05.074Z,30.7
2023-02-13T11:45:06.567Z,30.7
2023-02-13T11:46:08.294Z,30.9
2023-02-13T11:47:09.744Z,30.6
2023-02-13T11:48:11.151Z,31
2023-02-13T11:49:12.586Z,30.6
2023-02-13T11:50:13.987Z,30.6
2023-02-13T11:51:15.396Z,30.8
2023-02-13T11:52:16.797Z,30.5
2023-02-13T11:53:18.222Z,30.7
2023-02-13T11:54:19.644Z,30.5
2023-02-13T11:55:21.063Z,30.5
2023-02-13T11:56:22.475Z,30.6
2023-02-13T11:57:23.946Z,30.3
2023-02-13T11:58:25.643Z,30.7
2023-02-13T11:59:27.144Z,30.8
2023-02-13T12:00:28.553Z,30.5
2023-02-13T12:01:29.994Z,30.6
2023-02-13T12:02:31.535Z,30.4
2023-02-13T12:03:33.231Z,30.5
2023-02-13T12:04:34.690Z,30
2023-02-13T12:05:36.081Z,30.1
2023-02-13T12:06:37.476Z,30.1
2023-02-13T12:07:38.912Z,30.3
2023-02-13T12:08:40.299Z,30.1
2023-02-13T12:09:41.763Z,30.4
2023-02-13T12:10:43.204Z,30.3
2023-02-13T12:11:44.746Z,30.2
2023-02-13T12:12:46.249Z,30.3
2023-02-13T12:13:47.674Z,30.1
2023-02-13T12:14:49.100Z,30.1
2023-02-13T12:15:50.492Z,30.2
2023-02-13T12:16:52.023Z,30.3
2023-02-13T12:17:53.441Z,30.5
2023-02-13T12:18:54.857Z,30.5
2023-02-13T12:19:56.273Z,30.4
2023-02-13T12:20:58.393Z,30.6
2023-02-13T12:22:00.009Z,30.1
2023-02-13T12:23:01.463Z,30.5
2023-02-13T12:24:02.891Z,30.3
2023-02-13T12:25:04.306Z,30.1
2023-02-13T12:26:05.704Z,30.5
2023-02-13T12:27:07.123Z,30.5
2023-02-13T12:28:08.827Z,30.2
2023-02-13T12:29:10.314Z,30.3
2023-02-13T12:30:11.748Z,30.3
2023-02-13T12:31:13.141Z,30.2
2023-02-13T12:32:14.536Z,30.1
2023-02-13T12:33:15.929Z,30.1
2023-02-13T12:34:17.316Z,30
2023-02-13T12:35:18.737Z,30.1
2023-02-13T12:36:20.170Z,30.2
2023-02-13T12:37:21.558Z,30.1
2023-02-13T12:38:22.987Z,30.1
2023-02-13T12:39:24.407Z,30.1
2023-02-13T12:40:25.806Z,30.2
2023-02-13T12:41:27.244Z,30.1
2023-02-13T12:42:28.661Z,30.5
2023-02-13T12:43:30.181Z,30.7
2023-02-13T12:44:31.654Z,30.6
2023-02-13T12:45:33.119Z,30.3
2023-02-13T12:46:34.509Z,30.4
2023-02-13T12:47:35.903Z,30.4
2023-02-13T12:48:37.328Z,30.3
2023-02-13T12:49:38.730Z,30.3
2023-02-13T12:50:40.115Z,30.4
2023-02-13T12:51:41.547Z,30.2
2023-02-13T12:52:43.003Z,30.2
2023-02-13T12:53:44.399Z,30.5
2023-02-13T12:54:45.802Z,30.2
2023-02-13T12:55:47.222Z,30.4
2023-02-13T12:56:48.663Z,30.4
2023-02-13T12:57:50.043Z,30.4
2023-02-13T12:58:51.494Z,30.1
2023-02-13T12:59:52.913Z,30.4
2023-02-13T13:00:54.350Z,29.9
2023-02-13T13:01:55.962Z,30.4
2023-02-13T13:02:57.363Z,30.2
2023-02-13T13:03:58.818Z,30.3
2023-02-13T13:05:00.260Z,30
2023-02-13T13:06:12.765Z,29.9
2023-02-13T13:07:14.324Z,29.5
2023-02-13T13:08:15.718Z,29.7
2023-02-13T13:09:17.112Z,29.5
2023-02-13T13:10:18.509Z,29.4
2023-02-13T13:11:19.914Z,29.5
2023-02-13T13:12:21.406Z,29.5
2023-02-13T13:13:22.822Z,29.6
2023-02-13T13:14:24.298Z,30
2023-02-13T13:15:25.708Z,29.8
2023-02-13T13:16:27.307Z,29.7
2023-02-13T13:17:28.725Z,29.6
2023-02-13T13:18:30.121Z,30
2023-02-13T13:19:31.514Z,29.8
2023-02-13T13:20:32.920Z,29.6
2023-02-13T13:21:34.301Z,29.7
2023-02-13T13:22:35.724Z,29.6
2023-02-13T13:23:37.163Z,29.5
2023-02-13T13:24:38.562Z,29.3
2023-02-13T13:25:39.970Z,29.3
2023-02-13T13:26:41.366Z,29.4
2023-02-13T13:27:42.772Z,29.4
2023-02-13T13:28:44.150Z,29.4
2023-02-13T13:29:45.782Z,29.4
2023-02-13T13:30:47.460Z,29.4
2023-02-13T13:31:49.169Z,29.3
2023-02-13T13:32:50.835Z,29.5
2023-02-13T13:33:52.319Z,29.2
2023-02-13T13:34:53.702Z,29.4
2023-02-13T13:35:55.279Z,29.5
2023-02-13T13:36:56.784Z,29.6
2023-02-13T13:37:58.216Z,29.3
2023-02-13T13:39:01.940Z,29.3
2023-02-13T13:40:03.603Z,29.4
2023-02-13T13:41:05.022Z,29.3
2023-02-13T13:42:06.430Z,29.4
2023-02-13T13:43:07.822Z,29.5